createdAt,value
2022-10-29T00:00:57.004Z,3.22
2022-10-29T00:03:24.703Z,3.42
2022-10-29T00:05:58.787Z,2.92
2022-10-29T00:08:25.974Z,2.85
2022-10-29T00:10:52.550Z,2.90
2022-10-29T00:13:21.598Z,3.08
2022-10-29T00:15:48.142Z,3.33
2022-10-29T00:18:14.696Z,3.60
2022-10-29T00:20:41.188Z,2.30
2022-10-29T00:23:07.700Z,3.17
2022-10-29T00:25:34.222Z,3.47
2022-10-29T00:28:00.746Z,3.10
2022-10-29T00:30:27.298Z,2.90
2022-10-29T00:32:54.012Z,3.25
2022-10-29T00:35:24.121Z,2.42
2022-10-29T00:37:53.063Z,3.60
2022-10-29T00:40:22.714Z,3.17
2022-10-29T00:42:49.291Z,2.40
2022-10-29T00:45:23.399Z,3.45
2022-10-29T00:47:55.517Z,3.13
2022-10-29T00:50:25.536Z,3.30
2022-10-29T00:52:55.264Z,3.20
2022-10-29T00:55:23.899Z,2.92
2022-10-29T00:57:54.995Z,3.10
2022-10-29T01:00:24.502Z,2.58
2022-10-29T01:02:51.174Z,2.40
2022-10-29T01:05:24.547Z,2.60
2022-10-29T01:07:51.237Z,2.75
2022-10-29T01:10:31.822Z,3.55
2022-10-29T01:13:42.915Z,2.92
2022-10-29T01:16:18.688Z,3.30
2022-10-29T01:19:15.499Z,2.53
2022-10-29T01:21:45.388Z,2.75
2022-10-29T01:24:46.144Z,1.88
2022-10-29T01:27:15.688Z,2.90
2022-10-29T01:30:05.741Z,3.13
2022-10-29T01:32:56.166Z,2.22
2022-10-29T01:35:22.862Z,3.25
2022-10-29T01:38:21.585Z,2.63
2022-10-29T01:41:03.284Z,2.80
2022-10-29T01:44:08.943Z,2.75
2022-10-29T01:46:58.232Z,3.55
2022-10-29T01:49:40.300Z,2.78
2022-10-29T01:52:11.318Z,2.90
2022-10-29T01:54:47.835Z,2.95
2022-10-29T01:57:44.011Z,2.70
2022-10-29T02:00:12.050Z,3.15
2022-10-29T02:03:20.669Z,2.85
2022-10-29T02:06:11.325Z,3.55
2022-10-29T02:09:22.204Z,3.70
2022-10-29T02:11:59.014Z,3.65
2022-10-29T02:14:35.276Z,3.53
2022-10-29T02:17:03.083Z,3.03
2022-10-29T02:19:33.171Z,3.08
2022-10-29T02:21:59.833Z,2.72
2022-10-29T02:24:28.592Z,2.30
2022-10-29T02:26:55.114Z,2.33
2022-10-29T02:29:21.644Z,2.20
2022-10-29T02:31:48.192Z,3.50
2022-10-29T02:34:14.786Z,2.35
2022-10-29T02:36:41.299Z,2.85
2022-10-29T02:39:07.791Z,2.65
2022-10-29T02:41:34.327Z,2.20
2022-10-29T02:44:00.893Z,3.22
2022-10-29T02:46:29.613Z,3.15
2022-10-29T02:48:56.190Z,3.15
2022-10-29T02:51:22.710Z,2.92
2022-10-29T02:53:49.195Z,3.10
2022-10-29T02:56:15.721Z,2.83
2022-10-29T02:58:42.246Z,3.30
2022-10-29T03:01:08.834Z,2.53
2022-10-29T03:03:35.745Z,2.55
2022-10-29T03:06:02.277Z,3.25
2022-10-29T03:08:31.284Z,3.03
2022-10-29T03:10:57.763Z,2.83
2022-10-29T03:13:24.359Z,3.10
2022-10-29T03:15:50.929Z,2.30
2022-10-29T03:18:17.507Z,3.15
2022-10-29T03:20:45.550Z,3.22
2022-10-29T03:23:12.082Z,3.47
2022-10-29T03:25:38.670Z,2.60
2022-10-29T03:28:05.484Z,2.63
2022-10-29T03:30:32.905Z,2.75
2022-10-29T03:33:00.611Z,2.78
2022-10-29T03:35:27.584Z,3.15
2022-10-29T03:37:54.171Z,2.80
2022-10-29T03:40:20.737Z,3.08
2022-10-29T03:42:47.281Z,3.05
2022-10-29T03:45:13.863Z,2.33
2022-10-29T03:47:40.391Z,2.47
2022-10-29T03:50:07.752Z,2.45
2022-10-29T03:52:34.283Z,2.25
2022-10-29T03:55:03.040Z,3.00
2022-10-29T03:57:29.601Z,2.28
2022-10-29T03:59:56.446Z,2.78
2022-10-29T04:02:23.728Z,3.10
2022-10-29T04:04:50.325Z,3.15
2022-10-29T04:07:17.105Z,2.50
2022-10-29T04:09:43.830Z,2.50
2022-10-29T04:12:10.410Z,2.40
2022-10-29T04:14:41.332Z,2.92
2022-10-29T04:17:12.867Z,2.80
2022-10-29T04:19:39.374Z,2.20
2022-10-29T04:30:26.055Z,2.38
2022-10-29T04:32:56.947Z,2.92
2022-10-29T04:35:24.188Z,2.30
2022-10-29T04:37:50.717Z,2.50
2022-10-29T04:40:17.267Z,2.05
2022-10-29T04:42:43.759Z,2.72
2022-10-29T04:45:10.286Z,2.60
2022-10-29T04:47:39.883Z,3.83
2022-10-29T04:50:09.593Z,2.50
2022-10-29T04:52:39.272Z,3.03
2022-10-29T04:55:08.758Z,3.72
2022-10-29T04:57:38.570Z,2.78
2022-10-29T05:00:07.684Z,3.05
2022-10-29T05:02:39.143Z,2.15
2022-10-29T05:05:09.232Z,2.90
2022-10-29T05:07:38.971Z,3.25
2022-10-29T05:10:07.756Z,2.90
2022-10-29T05:12:34.292Z,2.60
2022-10-29T05:15:00.926Z,3.05
2022-10-29T05:17:27.488Z,2.10
2022-10-29T05:19:53.994Z,3.15
2022-10-29T05:22:20.544Z,3.08
2022-10-29T05:24:47.177Z,2.80
2022-10-29T05:27:13.740Z,2.92
2022-10-29T05:29:40.276Z,3.20
2022-10-29T05:32:09.153Z,2.08
2022-10-29T05:34:37.520Z,2.90
2022-10-29T05:37:04.953Z,2.45
2022-10-29T05:39:31.436Z,3.08
2022-10-29T05:41:57.949Z,3.30
2022-10-29T05:44:24.477Z,2.90
2022-10-29T05:46:51.111Z,2.00
2022-10-29T05:49:17.676Z,2.53
2022-10-29T05:51:44.163Z,3.25
2022-10-29T05:54:10.726Z,2.13
2022-10-29T05:56:37.269Z,3.13
2022-10-29T05:59:03.788Z,3.30
2022-10-29T06:01:30.459Z,2.78
2022-10-29T06:03:57.924Z,3.33
2022-10-29T06:06:24.472Z,2.25
2022-10-29T06:08:51.040Z,2.25
2022-10-29T06:11:17.579Z,2.40
2022-10-29T06:13:44.159Z,2.80
2022-10-29T06:16:13.660Z,2.55
2022-10-29T06:18:44.090Z,3.40
2022-10-29T06:21:13.751Z,2.50
2022-10-29T06:23:41.433Z,2.60
2022-10-29T06:26:07.982Z,2.33
2022-10-29T06:28:35.122Z,2.75
2022-10-29T06:31:01.739Z,2.22
2022-10-29T06:33:28.273Z,2.92
2022-10-29T06:35:59.387Z,2.05
2022-10-29T06:38:25.946Z,2.10
2022-10-29T06:40:56.267Z,2.53
2022-10-29T06:43:22.900Z,2.30
2022-10-29T06:45:52.263Z,2.15
2022-10-29T06:48:21.982Z,2.40
2022-10-29T06:50:49.449Z,1.88
2022-10-29T06:53:16.250Z,2.80
2022-10-29T06:55:46.146Z,2.42
2022-10-29T06:58:17.873Z,2.38
2022-10-29T07:00:45.396Z,2.60
2022-10-29T07:03:16.110Z,2.33
2022-10-29T07:05:46.168Z,2.45
2022-10-29T07:08:15.573Z,2.42
2022-10-29T07:10:45.029Z,2.75
2022-10-29T07:13:19.009Z,2.70
2022-10-29T07:15:45.796Z,2.05
2022-10-29T07:18:16.736Z,2.05
2022-10-29T07:20:47.107Z,2.10
2022-10-29T07:23:17.661Z,1.77
2022-10-29T07:25:52.397Z,2.05
2022-10-29T07:28:23.905Z,2.90
2022-10-29T07:30:51.832Z,2.63
2022-10-29T07:33:19.805Z,2.15
2022-10-29T07:35:46.787Z,2.63
2022-10-29T07:38:16.902Z,2.47
2022-10-29T07:40:51.250Z,2.42
2022-10-29T07:43:19.666Z,2.88
2022-10-29T07:45:50.724Z,1.77
2022-10-29T07:48:19.380Z,2.17
2022-10-29T07:50:46.703Z,2.25
2022-10-29T07:53:14.612Z,2.72
2022-10-29T07:55:41.348Z,2.92
2022-10-29T07:58:13.600Z,2.15
2022-10-29T08:00:41.330Z,2.22
2022-10-29T08:03:08.649Z,2.83
2022-10-29T08:05:35.806Z,2.58
2022-10-29T08:08:02.696Z,2.03
2022-10-29T08:10:30.812Z,2.13
2022-10-29T08:13:01.017Z,2.10
2022-10-29T08:15:30.118Z,1.92
2022-10-29T08:17:57.248Z,2.20
2022-10-29T08:20:27.084Z,2.53
2022-10-29T08:22:53.950Z,2.45
2022-10-29T08:25:20.920Z,1.73
2022-10-29T08:28:01.370Z,2.40
2022-10-29T08:30:28.129Z,5.75
2022-10-29T08:32:55.490Z,5.57
2022-10-29T08:35:22.724Z,4.53
2022-10-29T08:37:49.443Z,4.15
2022-10-29T08:40:29.344Z,3.88
2022-10-29T08:43:32.512Z,4.13
2022-10-29T08:45:59.950Z,4.43
2022-10-29T08:48:52.109Z,4.05
2022-10-29T08:51:46.555Z,3.83
2022-10-29T08:54:35.266Z,4.60
2022-10-29T08:57:11.273Z,4.40
2022-10-29T08:59:46.197Z,5.05
2022-10-29T09:02:17.779Z,3.88
2022-10-29T09:04:47.346Z,4.30
2022-10-29T09:07:34.455Z,3.60
2022-10-29T09:10:19.138Z,4.20
2022-10-29T09:13:00.067Z,4.50
2022-10-29T09:15:56.366Z,3.80
2022-10-29T09:18:50.107Z,3.65
2022-10-29T09:21:44.482Z,4.00
2022-10-29T09:24:32.190Z,4.40
2022-10-29T09:27:01.907Z,4.72
2022-10-29T09:29:49.444Z,3.97
2022-10-29T09:32:45.810Z,4.32
2022-10-29T09:35:18.405Z,3.80
2022-10-29T09:37:53.362Z,3.80
2022-10-29T09:40:31.230Z,4.20
2022-10-29T09:43:00.589Z,3.88
2022-10-29T09:45:46.326Z,4.10
2022-10-29T09:48:27.174Z,4.00
2022-10-29T09:51:10.032Z,4.38
2022-10-29T09:53:36.789Z,3.33
2022-10-29T09:56:07.474Z,3.90
2022-10-29T09:58:38.191Z,3.90
2022-10-29T10:01:04.852Z,3.35
2022-10-29T10:03:45.643Z,3.05
2022-10-29T10:06:16.892Z,3.40
2022-10-29T10:09:06.223Z,4.30
2022-10-29T10:11:44.599Z,3.10
2022-10-29T10:14:20.986Z,3.60
2022-10-29T10:16:58.106Z,3.00
2022-10-29T10:19:27.743Z,3.17
2022-10-29T10:22:02.468Z,3.65
2022-10-29T10:24:34.431Z,3.47
2022-10-29T10:27:02.089Z,3.88
2022-10-29T10:29:28.608Z,3.40
2022-10-29T10:31:55.085Z,3.72
2022-10-29T10:34:36.685Z,3.92
2022-10-29T10:37:04.318Z,3.90
2022-10-29T10:39:36.461Z,3.63
2022-10-29T10:42:07.000Z,3.83
2022-10-29T10:44:34.956Z,3.38
2022-10-29T10:47:06.972Z,3.47
2022-10-29T10:49:37.202Z,4.40
2022-10-29T10:52:14.289Z,3.60
2022-10-29T10:55:03.130Z,3.38
2022-10-29T10:57:50.023Z,3.50
2022-10-29T11:00:20.068Z,3.13
2022-10-29T11:03:14.135Z,4.28
2022-10-29T11:05:52.027Z,3.42
2022-10-29T11:08:28.464Z,3.42
2022-10-29T11:11:04.114Z,4.13
2022-10-29T11:13:33.378Z,3.67
2022-10-29T11:16:14.205Z,3.95
2022-10-29T11:18:59.563Z,3.53
2022-10-29T11:21:46.534Z,3.45
2022-10-29T11:24:30.365Z,3.50
2022-10-29T11:27:04.528Z,4.15
2022-10-29T11:30:06.915Z,3.45
2022-10-29T11:32:50.634Z,3.03
2022-10-29T11:35:48.544Z,3.33
2022-10-29T11:38:41.433Z,3.33
2022-10-29T11:41:40.200Z,3.17
2022-10-29T11:44:12.909Z,4.10
2022-10-29T11:47:04.095Z,3.80
2022-10-29T11:49:30.563Z,3.88
2022-10-29T11:52:06.320Z,3.90
2022-10-29T11:55:04.552Z,3.75
2022-10-29T11:57:47.676Z,3.58
2022-10-29T12:00:20.136Z,4.40
2022-10-29T12:03:20.717Z,3.45
2022-10-29T12:05:56.419Z,3.80
2022-10-29T12:08:48.891Z,3.60
2022-10-29T12:11:42.055Z,3.42
2022-10-29T12:14:26.282Z,3.83
2022-10-29T12:16:58.924Z,3.63
2022-10-29T12:19:51.833Z,3.67
2022-10-29T12:22:33.424Z,4.03
2022-10-29T12:25:44.531Z,3.88
2022-10-29T12:28:29.501Z,3.97
2022-10-29T12:30:59.389Z,3.45
2022-10-29T12:33:37.887Z,3.90
2022-10-29T12:36:25.042Z,3.70
2022-10-29T12:38:55.633Z,3.80
2022-10-29T12:41:37.591Z,4.18
2022-10-29T12:44:19.215Z,3.80
2022-10-29T12:46:55.105Z,3.92
2022-10-29T12:49:35.401Z,4.00
2022-10-29T12:52:19.479Z,3.28
2022-10-29T12:54:50.525Z,3.88
2022-10-29T12:57:19.076Z,4.07
2022-10-29T12:59:45.899Z,3.70
2022-10-29T13:02:21.716Z,3.50
2022-10-29T13:05:06.724Z,3.70
2022-10-29T13:07:34.595Z,3.28
2022-10-29T13:10:26.521Z,3.38
2022-10-29T13:12:56.038Z,3.85
2022-10-29T13:15:36.325Z,3.58
2022-10-29T13:18:28.854Z,3.60
2022-10-29T13:20:55.813Z,3.75
2022-10-29T13:23:22.553Z,3.45
2022-10-29T13:25:52.739Z,4.13
2022-10-29T13:28:19.475Z,3.92
2022-10-29T13:31:13.976Z,3.90
2022-10-29T13:36:24.446Z,3.53
2022-10-29T13:39:04.571Z,3.50
2022-10-29T13:41:45.121Z,3.60
2022-10-29T13:44:14.251Z,3.15
2022-10-29T13:47:19.861Z,3.78
2022-10-29T13:49:51.716Z,4.05
2022-10-29T13:52:22.586Z,3.63
2022-10-29T13:54:56.725Z,3.60
2022-10-29T13:57:53.829Z,3.50
2022-10-29T14:00:22.181Z,3.10
2022-10-29T14:02:57.578Z,3.72
2022-10-29T14:05:33.922Z,3.90
2022-10-29T14:08:07.545Z,4.00
2022-10-29T14:10:40.249Z,3.38
2022-10-29T14:13:32.565Z,3.70
2022-10-29T14:16:06.587Z,3.55
2022-10-29T14:18:36.563Z,3.17
2022-10-29T14:21:05.886Z,3.45
2022-10-29T14:23:33.254Z,2.90
2022-10-29T14:26:03.047Z,3.35
2022-10-29T14:28:33.685Z,3.53
2022-10-29T14:31:05.138Z,2.85
2022-10-29T14:33:35.865Z,4.07
2022-10-29T14:36:21.450Z,3.40
2022-10-29T14:38:52.738Z,3.22
2022-10-29T14:41:24.647Z,3.40
2022-10-29T14:44:16.127Z,4.25
2022-10-29T14:46:44.337Z,3.78
2022-10-29T14:49:17.621Z,5.65
2022-10-29T14:52:04.997Z,6.00
2022-10-29T14:54:35.637Z,6.47
2022-10-29T14:57:07.745Z,5.53
2022-10-29T14:59:35.734Z,4.22
2022-10-29T15:02:36.220Z,4.25
2022-10-29T15:05:01.713Z,4.57
2022-10-29T15:07:37.110Z,5.10
2022-10-29T15:10:09.697Z,4.18
2022-10-29T15:12:40.238Z,5.13
2022-10-29T15:15:19.124Z,4.10
2022-10-29T15:18:06.634Z,3.50
2022-10-29T15:20:39.159Z,3.92
2022-10-29T15:23:06.405Z,4.15
2022-10-29T15:25:36.787Z,3.40
2022-10-29T15:28:04.282Z,3.53
2022-10-29T15:30:36.558Z,3.67
2022-10-29T15:33:08.862Z,4.60
2022-10-29T15:35:36.593Z,3.80
2022-10-29T15:38:03.944Z,4.40
2022-10-29T15:40:30.794Z,3.65
2022-10-29T15:43:30.105Z,4.72
2022-10-29T15:45:58.232Z,4.45
2022-10-29T15:48:36.226Z,3.95
2022-10-29T15:51:04.153Z,3.95
2022-10-29T15:53:30.687Z,4.18
2022-10-29T15:55:58.203Z,3.50
2022-10-29T15:58:27.721Z,3.08
2022-10-29T16:00:57.322Z,3.80
2022-10-29T16:03:27.334Z,4.22
2022-10-29T16:05:56.633Z,4.00
2022-10-29T16:08:28.746Z,3.53
2022-10-29T16:11:00.308Z,3.30
2022-10-29T16:13:28.756Z,3.60
2022-10-29T16:15:56.059Z,3.10
2022-10-29T16:18:22.567Z,3.50
2022-10-29T16:20:51.971Z,3.58
2022-10-29T16:23:18.461Z,3.28
2022-10-29T16:25:44.962Z,3.75
2022-10-29T16:28:11.506Z,3.28
2022-10-29T16:33:04.993Z,5.03
2022-10-29T16:35:31.780Z,4.35
2022-10-29T16:37:58.429Z,3.70
2022-10-29T16:40:29.833Z,4.40
2022-10-29T16:42:57.433Z,3.92
2022-10-29T16:45:26.746Z,3.72
2022-10-29T16:47:54.423Z,3.70
2022-10-29T16:50:24.589Z,3.47
2022-10-29T16:52:58.494Z,3.65
2022-10-29T16:55:26.066Z,4.10
2022-10-29T16:57:52.876Z,3.67
2022-10-29T17:00:19.410Z,4.00
2022-10-29T17:02:45.927Z,3.80
2022-10-29T17:05:13.447Z,4.22
2022-10-29T17:07:40.218Z,4.60
2022-10-29T17:10:07.963Z,4.35
2022-10-29T17:12:35.451Z,4.22
2022-10-29T17:15:02.587Z,4.00
2022-10-29T17:17:32.673Z,4.00
2022-10-29T17:19:59.596Z,3.88
2022-10-29T17:22:28.604Z,4.13
2022-10-29T17:24:55.282Z,4.20
2022-10-29T17:27:25.278Z,5.07
2022-10-29T17:29:51.978Z,3.92
2022-10-29T17:32:40.482Z,4.47
2022-10-29T17:35:07.320Z,4.03
2022-10-29T17:37:34.446Z,4.00
2022-10-29T17:40:03.344Z,4.80
2022-10-29T17:42:33.894Z,4.07
2022-10-29T17:45:00.684Z,4.32
2022-10-29T17:47:30.634Z,4.05
2022-10-29T17:49:59.262Z,4.45
2022-10-29T17:52:33.122Z,4.82
2022-10-29T17:55:34.592Z,4.13
2022-10-29T17:58:06.010Z,4.03
2022-10-29T18:00:32.826Z,4.85
2022-10-29T18:03:02.835Z,4.70
2022-10-29T18:05:30.858Z,4.50
2022-10-29T18:07:59.792Z,4.43
2022-10-29T18:10:26.757Z,5.18
2022-10-29T18:12:53.772Z,4.32
2022-10-29T18:15:20.645Z,4.40
2022-10-29T18:17:50.285Z,4.85
2022-10-29T18:20:17.244Z,3.88
2022-10-29T18:22:44.608Z,3.60
2022-10-29T18:25:11.967Z,4.78
2022-10-29T18:28:02.295Z,4.38
2022-10-29T18:30:33.335Z,3.78
2022-10-29T18:33:18.156Z,4.20
2022-10-29T18:35:44.796Z,3.55
2022-10-29T18:38:11.319Z,3.72
2022-10-29T18:40:40.453Z,3.80
2022-10-29T18:43:07.092Z,4.35
2022-10-29T18:45:33.650Z,4.85
2022-10-29T18:48:03.537Z,3.50
2022-10-29T18:50:32.019Z,4.32
2022-10-29T18:52:59.011Z,3.72
2022-10-29T18:55:26.112Z,4.47
2022-10-29T18:57:52.640Z,3.83
2022-10-29T19:00:19.232Z,4.00
2022-10-29T19:02:45.779Z,3.50
2022-10-29T19:05:12.374Z,4.30
2022-10-29T19:07:38.945Z,3.90
2022-10-29T19:10:05.917Z,4.30
2022-10-29T19:12:35.505Z,4.15
2022-10-29T19:15:05.541Z,3.80
2022-10-29T19:17:34.697Z,4.40
2022-10-29T19:20:04.717Z,4.10
2022-10-29T19:22:34.007Z,4.00
2022-10-29T19:25:02.935Z,3.80
2022-10-29T19:27:32.600Z,3.85
2022-10-29T19:29:59.150Z,3.60
2022-10-29T19:32:25.718Z,3.45
2022-10-29T19:34:52.496Z,2.92
2022-10-29T19:37:19.066Z,3.60
2022-10-29T19:39:45.600Z,3.30
2022-10-29T19:42:12.098Z,3.20
2022-10-29T19:44:38.598Z,3.70
2022-10-29T19:47:05.176Z,3.80
2022-10-29T19:49:34.496Z,3.30
2022-10-29T19:52:04.125Z,3.65
2022-10-29T19:54:34.896Z,3.72
2022-10-29T19:57:04.353Z,3.40
2022-10-29T19:59:33.985Z,3.40
2022-10-29T20:02:02.678Z,3.28
2022-10-29T20:04:29.261Z,3.15
2022-10-29T20:06:55.743Z,3.47
2022-10-29T20:09:22.357Z,3.20
2022-10-29T20:11:48.878Z,3.67
2022-10-29T20:14:15.396Z,3.58
2022-10-29T20:16:41.883Z,3.20
2022-10-29T20:19:08.847Z,3.75
2022-10-29T20:21:35.353Z,3.65
2022-10-29T20:24:04.907Z,3.67
2022-10-29T20:26:36.696Z,3.88
2022-10-29T20:29:06.049Z,3.53
2022-10-29T20:31:41.137Z,3.53
2022-10-29T20:34:09.531Z,3.67
2022-10-29T20:36:36.139Z,3.38
2022-10-29T20:39:05.595Z,1.65
2022-10-29T20:41:35.033Z,1.67
2022-10-29T20:44:04.103Z,1.50
2022-10-29T20:46:30.678Z,1.60
2022-10-29T20:48:57.294Z,1.60
2022-10-29T20:51:24.746Z,1.40
2022-10-29T20:53:52.524Z,1.80
2022-10-29T20:56:20.843Z,1.17
2022-10-29T20:58:47.385Z,1.30
2022-10-29T21:01:16.452Z,1.63
2022-10-29T21:03:43.804Z,2.10
2022-10-29T21:06:15.771Z,2.13
2022-10-29T21:08:43.474Z,1.73
2022-10-29T21:11:12.622Z,1.40
2022-10-29T21:13:39.152Z,1.35
2022-10-29T21:16:14.674Z,1.48
2022-10-29T21:18:42.490Z,1.27
2022-10-29T21:21:09.774Z,1.65
2022-10-29T21:23:39.436Z,1.30
2022-10-29T21:26:14.309Z,1.90
2022-10-29T21:28:41.060Z,2.10
2022-10-29T21:31:07.794Z,1.30
2022-10-29T21:33:37.641Z,1.42
2022-10-29T21:36:06.958Z,2.20
2022-10-29T21:38:36.243Z,1.38
2022-10-29T21:41:02.775Z,1.77
2022-10-29T21:43:29.407Z,1.73
2022-10-29T21:45:56.409Z,2.35
2022-10-29T21:48:25.643Z,1.42
2022-10-29T21:51:02.473Z,1.65
2022-10-29T21:53:29.518Z,1.38
2022-10-29T21:55:57.791Z,1.60
2022-10-29T21:58:24.647Z,1.35
2022-10-29T22:00:51.615Z,1.40
2022-10-29T22:03:18.578Z,1.20
2022-10-29T22:05:45.141Z,1.65
2022-10-29T22:08:11.669Z,1.00
2022-10-29T22:10:47.256Z,1.00
2022-10-29T22:13:14.588Z,1.63
2022-10-29T22:15:44.784Z,1.83
2022-10-29T22:18:11.234Z,1.20
2022-10-29T22:20:40.687Z,1.33
2022-10-29T22:23:10.090Z,1.17
2022-10-29T22:25:38.907Z,1.65
2022-10-29T22:28:05.439Z,1.75
2022-10-29T22:30:31.961Z,1.55
2022-10-29T22:32:58.425Z,1.50
2022-10-29T22:35:24.870Z,1.58
2022-10-29T22:37:53.505Z,1.40
2022-10-29T22:40:20.057Z,1.83
2022-10-29T22:42:46.541Z,1.40
2022-10-29T22:45:13.098Z,1.90
2022-10-29T22:47:40.983Z,1.40
2022-10-29T22:50:10.101Z,1.98
2022-10-29T22:52:36.689Z,1.85
2022-10-29T22:55:03.528Z,1.70
2022-10-29T22:57:30.037Z,1.13
2022-10-29T22:59:56.600Z,1.02
2022-10-29T23:02:23.161Z,1.23
2022-10-29T23:04:49.719Z,1.33
2022-10-29T23:07:16.272Z,1.20
2022-10-29T23:09:42.755Z,1.42
2022-10-29T23:12:11.339Z,1.50
2022-10-29T23:14:37.845Z,1.20
2022-10-29T23:17:04.377Z,1.25
2022-10-29T23:19:30.983Z,1.65
2022-10-29T23:21:57.542Z,1.40
2022-10-29T23:24:24.083Z,1.67
2022-10-29T23:26:50.643Z,1.40
2022-10-29T23:29:17.144Z,1.50
2022-10-29T23:31:43.664Z,1.10
2022-10-29T23:34:14.359Z,1.55
2022-10-29T23:36:42.996Z,1.45
2022-10-29T23:39:09.719Z,1.20
2022-10-29T23:41:36.210Z,1.50
2022-10-29T23:44:02.755Z,1.35
2022-10-29T23:46:29.270Z,1.35
2022-10-29T23:48:55.900Z,1.20
2022-10-29T23:51:22.558Z,1.40
2022-10-29T23:53:51.676Z,1.60
2022-10-29T23:56:21.357Z,1.48
2022-10-29T23:58:47.944Z,1.58
